sensor_id;sensor_type;location;lat;lon;timestamp;pressure;altitude;pressure_sealevel;temperature;humidity
20696;BME280;10507;52.754;13.040;2022-12-24T00:01:32;100300.63;;;5.53;100.00
20696;BME280;10507;52.754;13.040;2022-12-24T00:04:00;100311.81;;;5.61;100.00
20696;BME280;10507;52.754;13.040;2022-12-24T00:06:28;100319.63;;;5.64;100.00
20696;BME280;10507;52.754;13.040;2022-12-24T00:08:57;100289.84;;;5.57;100.00
20696;BME280;10507;52.754;13.040;2022-12-24T00:11:26;100294.94;;;5.63;100.00
20696;BME280;10507;52.754;13.040;2022-12-24T00:13:54;100265.97;;;5.59;100.00
20696;BME280;10507;52.754;13.040;2022-12-24T00:16:22;100294.00;;;5.65;100.00
20696;BME280;10507;52.754;13.040;2022-12-24T00:18:51;100282.69;;;5.61;100.00
20696;BME280;10507;52.754;13.040;2022-12-24T00:21:19;100282.53;;;5.66;100.00
20696;BME280;10507;52.754;13.040;2022-12-24T00:23:47;100279.91;;;5.64;100.00
20696;BME280;10507;52.754;13.040;2022-12-24T00:26:15;100267.53;;;5.65;100.00
20696;BME280;10507;52.754;13.040;2022-12-24T00:28:44;100274.50;;;5.67;100.00
20696;BME280;10507;52.754;13.040;2022-12-24T00:31:16;100247.28;;;5.63;100.00
20696;BME280;10507;52.754;13.040;2022-12-24T00:33:45;100230.78;;;5.55;100.00
20696;BME280;10507;52.754;13.040;2022-12-24T00:36:13;100249.41;;;5.54;100.00
20696;BME280;10507;52.754;13.040;2022-12-24T00:38:42;100273.00;;;5.60;100.00
20696;BME280;10507;52.754;13.040;2022-12-24T00:41:11;100264.22;;;5.58;100.00
20696;BME280;10507;52.754;13.040;2022-12-24T00:43:54;100274.78;;;5.59;100.00
20696;BME280;10507;52.754;13.040;2022-12-24T00:46:23;100268.78;;;5.54;100.00
20696;BME280;10507;52.754;13.040;2022-12-24T00:48:52;100280.25;;;5.55;100.00
20696;BME280;10507;52.754;13.040;2022-12-24T00:51:21;100278.53;;;5.54;100.00
20696;BME280;10507;52.754;13.040;2022-12-24T00:53:50;100276.75;;;5.54;100.00
20696;BME280;10507;52.754;13.040;2022-12-24T00:56:18;100239.88;;;5.48;100.00
20696;BME280;10507;52.754;13.040;2022-12-24T00:58:47;100235.53;;;5.47;100.00
20696;BME280;10507;52.754;13.040;2022-12-24T01:01:17;100260.00;;;5.54;100.00
20696;BME280;10507;52.754;13.040;2022-12-24T01:03:46;100207.34;;;5.45;100.00
20696;BME280;10507;52.754;13.040;2022-12-24T01:06:17;100230.22;;;5.47;100.00
20696;BME280;10507;52.754;13.040;2022-12-24T01:08:45;100189.75;;;5.44;100.00
20696;BME280;10507;52.754;13.040;2022-12-24T01:11:13;100181.03;;;5.40;100.00
20696;BME280;10507;52.754;13.040;2022-12-24T01:13:41;100179.31;;;5.39;100.00
20696;BME280;10507;52.754;13.040;2022-12-24T01:16:15;100182.00;;;5.37;100.00
20696;BME280;10507;52.754;13.040;2022-12-24T01:18:45;100201.22;;;5.42;100.00
20696;BME280;10507;52.754;13.040;2022-12-24T01:21:14;100187.22;;;5.40;100.00
20696;BME280;10507;52.754;13.040;2022-12-24T01:23:43;100178.47;;;5.38;100.00
20696;BME280;10507;52.754;13.040;2022-12-24T01:26:11;100184.75;;;5.36;100.00
20696;BME280;10507;52.754;13.040;2022-12-24T01:28:40;100179.50;;;5.34;100.00
20696;BME280;10507;52.754;13.040;2022-12-24T01:31:13;100173.50;;;5.29;100.00
20696;BME280;10507;52.754;13.040;2022-12-24T01:33:41;100170.84;;;5.29;100.00
20696;BME280;10507;52.754;13.040;2022-12-24T01:36:12;100183.28;;;5.27;100.00
20696;BME280;10507;52.754;13.040;2022-12-24T01:38:40;100180.50;;;5.30;100.00
20696;BME280;10507;52.754;13.040;2022-12-24T01:41:14;100188.56;;;5.27;100.00
20696;BME280;10507;52.754;13.040;2022-12-24T01:44:15;100200.13;;;5.25;100.00
20696;BME280;10507;52.754;13.040;2022-12-24T01:46:43;100193.16;;;5.22;100.00
20696;BME280;10507;52.754;13.040;2022-12-24T01:49:12;100186.25;;;5.18;100.00
20696;BME280;10507;52.754;13.040;2022-12-24T01:51:45;100185.44;;;5.16;100.00
20696;BME280;10507;52.754;13.040;2022-12-24T01:54:16;100192.63;;;5.12;100.00
20696;BME280;10507;52.754;13.040;2022-12-24T01:56:48;100232.97;;;5.19;100.00
20696;BME280;10507;52.754;13.040;2022-12-24T01:59:19;100218.22;;;5.12;100.00
20696;BME280;10507;52.754;13.040;2022-12-24T02:01:49;100224.22;;;5.17;100.00
20696;BME280;10507;52.754;13.040;2022-12-24T02:04:25;100205.88;;;5.11;100.00
20696;BME280;10507;52.754;13.040;2022-12-24T02:06:57;100254.25;;;5.16;100.00
20696;BME280;10507;52.754;13.040;2022-12-24T02:09:26;100259.53;;;5.16;100.00
20696;BME280;10507;52.754;13.040;2022-12-24T02:11:55;100228.09;;;5.07;100.00
20696;BME280;10507;52.754;13.040;2022-12-24T02:14:24;100266.66;;;5.14;100.00
20696;BME280;10507;52.754;13.040;2022-12-24T02:16:59;100254.50;;;5.08;100.00
20696;BME280;10507;52.754;13.040;2022-12-24T02:22:39;100279.97;;;5.11;100.00
20696;BME280;10507;52.754;13.040;2022-12-24T02:25:41;100308.06;;;5.15;100.00
20696;BME280;10507;52.754;13.040;2022-12-24T02:28:17;100306.34;;;5.14;100.00
20696;BME280;10507;52.754;13.040;2022-12-24T02:31:07;100319.59;;;5.14;100.00
20696;BME280;10507;52.754;13.040;2022-12-24T02:33:44;100316.88;;;5.15;100.00
20696;BME280;10507;52.754;13.040;2022-12-24T02:36:19;100327.41;;;5.17;100.00
20696;BME280;10507;52.754;13.040;2022-12-24T02:38:53;100316.94;;;5.14;100.00
20696;BME280;10507;52.754;13.040;2022-12-24T02:41:29;100330.19;;;5.14;100.00
20696;BME280;10507;52.754;13.040;2022-12-24T02:44:20;100351.94;;;5.22;100.00
20696;BME280;10507;52.754;13.040;2022-12-24T02:46:51;100314.34;;;5.12;100.00
20696;BME280;10507;52.754;13.040;2022-12-24T02:49:20;100322.00;;;5.20;100.00
20696;BME280;10507;52.754;13.040;2022-12-24T02:51:48;100330.78;;;5.22;100.00
20696;BME280;10507;52.754;13.040;2022-12-24T02:54:17;100303.63;;;5.15;100.00
20696;BME280;10507;52.754;13.040;2022-12-24T02:56:55;100301.06;;;5.14;100.00
20696;BME280;10507;52.754;13.040;2022-12-24T02:59:40;100323.78;;;5.19;100.00
20696;BME280;10507;52.754;13.040;2022-12-24T03:02:20;100334.31;;;5.23;100.00
20696;BME280;10507;52.754;13.040;2022-12-24T03:04:56;100339.53;;;5.24;100.00
20696;BME280;10507;52.754;13.040;2022-12-24T03:07:29;100315.78;;;5.23;100.00
20696;BME280;10507;52.754;13.040;2022-12-24T03:10:08;100289.56;;;5.15;100.00
20696;BME280;10507;52.754;13.040;2022-12-24T03:12:41;100298.31;;;5.17;100.00
20696;BME280;10507;52.754;13.040;2022-12-24T03:15:14;100292.25;;;5.13;100.00
20696;BME280;10507;52.754;13.040;2022-12-24T03:17:56;100302.69;;;5.18;100.00
20696;BME280;10507;52.754;13.040;2022-12-24T03:20:31;100280.78;;;5.13;100.00
20696;BME280;10507;52.754;13.040;2022-12-24T03:23:01;100308.00;;;5.18;100.00
20696;BME280;10507;52.754;13.040;2022-12-24T03:25:31;100284.38;;;5.12;100.00
20696;BME280;10507;52.754;13.040;2022-12-24T03:28:05;100307.22;;;5.14;100.00
20696;BME280;10507;52.754;13.040;2022-12-24T03:30:34;100316.00;;;5.15;100.00
20696;BME280;10507;52.754;13.040;2022-12-24T03:33:07;100333.56;;;5.17;100.00
20696;BME280;10507;52.754;13.040;2022-12-24T03:35:37;100341.34;;;5.22;100.00
20696;BME280;10507;52.754;13.040;2022-12-24T03:38:05;100325.47;;;5.22;100.00
20696;BME280;10507;52.754;13.040;2022-12-24T03:40:34;100310.47;;;5.23;100.00
20696;BME280;10507;52.754;13.040;2022-12-24T03:43:02;100309.56;;;5.24;100.00
20696;BME280;10507;52.754;13.040;2022-12-24T03:45:30;100284.19;;;5.18;100.00
20696;BME280;10507;52.754;13.040;2022-12-24T03:47:59;100290.38;;;5.17;100.00
20696;BME280;10507;52.754;13.040;2022-12-24T03:50:29;100283.34;;;5.16;100.00
20696;BME280;10507;52.754;13.040;2022-12-24T03:52:57;100289.41;;;5.19;100.00
20696;BME280;10507;52.754;13.040;2022-12-24T03:55:25;100290.25;;;5.20;100.00
20696;BME280;10507;52.754;13.040;2022-12-24T03:57:53;100306.94;;;5.22;100.00
20696;BME280;10507;52.754;13.040;2022-12-24T04:00:23;100293.72;;;5.22;100.00
20696;BME280;10507;52.754;13.040;2022-12-24T04:02:52;100300.75;;;5.23;100.00
20696;BME280;10507;52.754;13.040;2022-12-24T04:05:23;100295.47;;;5.23;100.00
20696;BME280;10507;52.754;13.040;2022-12-24T04:07:52;100287.69;;;5.18;100.00
20696;BME280;10507;52.754;13.040;2022-12-24T04:10:20;100302.47;;;5.24;100.00
20696;BME280;10507;52.754;13.040;2022-12-24T04:12:48;100316.53;;;5.26;100.00
20696;BME280;10507;52.754;13.040;2022-12-24T04:15:17;100320.75;;;5.32;100.00
20696;BME280;10507;52.754;13.040;2022-12-24T04:17:45;100277.84;;;5.22;100.00
20696;BME280;10507;52.754;13.040;2022-12-24T04:20:13;100292.81;;;5.23;100.00
20696;BME280;10507;52.754;13.040;2022-12-24T04:22:41;100291.06;;;5.22;100.00
20696;BME280;10507;52.754;13.040;2022-12-24T04:25:11;100307.75;;;5.24;100.00
20696;BME280;10507;52.754;13.040;2022-12-24T04:27:39;100307.75;;;5.24;100.00
20696;BME280;10507;52.754;13.040;2022-12-24T04:30:08;100320.91;;;5.27;100.00
20696;BME280;10507;52.754;13.040;2022-12-24T04:32:36;100334.03;;;5.30;100.00
20696;BME280;10507;52.754;13.040;2022-12-24T04:35:05;100332.25;;;5.31;100.00
20696;BME280;10507;52.754;13.040;2022-12-24T04:37:33;100323.44;;;5.30;100.00
20696;BME280;10507;52.754;13.040;2022-12-24T04:40:01;100331.28;;;5.33;100.00
20696;BME280;10507;52.754;13.040;2022-12-24T04:42:31;100320.84;;;5.29;100.00
20696;BME280;10507;52.754;13.040;2022-12-24T04:44:59;100304.16;;;5.27;100.00
20696;BME280;10507;52.754;13.040;2022-12-24T04:47:27;100302.47;;;5.24;100.00
20696;BME280;10507;52.754;13.040;2022-12-24T04:49:55;100325.16;;;5.31;100.00
20696;BME280;10507;52.754;13.040;2022-12-24T04:52:23;100315.50;;;5.30;100.00
20696;BME280;10507;52.754;13.040;2022-12-24T04:54:51;100323.34;;;5.33;100.00
20696;BME280;10507;52.754;13.040;2022-12-24T04:57:19;100319.78;;;5.34;100.00
20696;BME280;10507;52.754;13.040;2022-12-24T04:59:51;100306.63;;;5.31;100.00
20696;BME280;10507;52.754;13.040;2022-12-24T05:02:19;100311.81;;;5.36;100.00
20696;BME280;10507;52.754;13.040;2022-12-24T05:04:48;100303.78;;;5.37;100.00
20696;BME280;10507;52.754;13.040;2022-12-24T05:07:16;100291.53;;;5.35;100.00
20696;BME280;10507;52.754;13.040;2022-12-24T05:09:44;100288.09;;;5.31;100.00
20696;BME280;10507;52.754;13.040;2022-12-24T05:12:12;100305.63;;;5.35;100.00
20696;BME280;10507;52.754;13.040;2022-12-24T05:14:40;100277.44;;;5.34;100.00
20696;BME280;10507;52.754;13.040;2022-12-24T05:17:09;100275.69;;;5.33;100.00
20696;BME280;10507;52.754;13.040;2022-12-24T05:19:37;100273.94;;;5.34;100.00
20696;BME280;10507;52.754;13.040;2022-12-24T05:22:05;100267.75;;;5.33;100.00
20696;BME280;10507;52.754;13.040;2022-12-24T05:24:51;100239.75;;;5.26;100.00
20696;BME280;10507;52.754;13.040;2022-12-24T05:27:37;100247.72;;;5.26;100.00
20696;BME280;10507;52.754;13.040;2022-12-24T05:30:06;100260.84;;;5.29;100.00
20696;BME280;10507;52.754;13.040;2022-12-24T05:32:36;100268.78;;;5.29;100.00
20696;BME280;10507;52.754;13.040;2022-12-24T05:35:04;100269.56;;;5.31;100.00
20696;BME280;10507;52.754;13.040;2022-12-24T05:37:32;100262.56;;;5.30;100.00
20696;BME280;10507;52.754;13.040;2022-12-24T05:40:00;100244.19;;;5.26;100.00
20696;BME280;10507;52.754;13.040;2022-12-24T05:42:29;100252.19;;;5.24;100.00
20696;BME280;10507;52.754;13.040;2022-12-24T05:44:57;100253.97;;;5.24;100.00
20696;BME280;10507;52.754;13.040;2022-12-24T05:47:26;100250.47;;;5.23;100.00
20696;BME280;10507;52.754;13.040;2022-12-24T05:49:55;100253.16;;;5.21;100.00
20696;BME280;10507;52.754;13.040;2022-12-24T05:52:23;100273.34;;;5.24;100.00
20696;BME280;10507;52.754;13.040;2022-12-24T05:54:51;100276.00;;;5.24;100.00
20696;BME280;10507;52.754;13.040;2022-12-24T05:57:19;100265.53;;;5.21;100.00
20696;BME280;10507;52.754;13.040;2022-12-24T05:59:47;100274.28;;;5.23;100.00
20696;BME280;10507;52.754;13.040;2022-12-24T06:02:15;100259.44;;;5.19;100.00
20696;BME280;10507;52.754;13.040;2022-12-24T06:04:43;100265.56;;;5.19;100.00
20696;BME280;10507;52.754;13.040;2022-12-24T06:07:13;100270.81;;;5.21;100.00
20696;BME280;10507;52.754;13.040;2022-12-24T06:09:43;100266.50;;;5.18;100.00
20696;BME280;10507;52.754;13.040;2022-12-24T06:12:12;100286.72;;;5.21;100.00
20696;BME280;10507;52.754;13.040;2022-12-24T06:14:40;100272.78;;;5.16;100.00
20696;BME280;10507;52.754;13.040;2022-12-24T06:17:08;100269.31;;;5.14;100.00
20696;BME280;10507;52.754;13.040;2022-12-24T06:19:36;100294.84;;;5.15;100.00
20696;BME280;10507;52.754;13.040;2022-12-24T06:22:04;100291.34;;;5.14;100.00
20696;BME280;10507;52.754;13.040;2022-12-24T06:24:33;100301.81;;;5.17;100.00
20696;BME280;10507;52.754;13.040;2022-12-24T06:27:03;100309.91;;;5.13;100.00
20696;BME280;10507;52.754;13.040;2022-12-24T06:29:31;100348.41;;;5.23;100.00
20696;BME280;10507;52.754;13.040;2022-12-24T06:31:59;100330.88;;;5.19;100.00
20696;BME280;10507;52.754;13.040;2022-12-24T06:34:28;100315.13;;;5.16;100.00
20696;BME280;10507;52.754;13.040;2022-12-24T06:36:55;100322.94;;;5.19;100.00
20696;BME280;10507;52.754;13.040;2022-12-24T06:39:24;100336.03;;;5.24;100.00
20696;BME280;10507;52.754;13.040;2022-12-24T06:41:53;100325.59;;;5.19;100.00
20696;BME280;10507;52.754;13.040;2022-12-24T06:44:22;100330.03;;;5.18;100.00
20696;BME280;10507;52.754;13.040;2022-12-24T06:46:50;100307.25;;;5.13;100.00
20696;BME280;10507;52.754;13.040;2022-12-24T06:49:18;100308.28;;;5.09;100.00
20696;BME280;10507;52.754;13.040;2022-12-24T06:51:46;100340.69;;;5.15;100.00
20696;BME280;10507;52.754;13.040;2022-12-24T06:54:14;100331.06;;;5.13;100.00
20696;BME280;10507;52.754;13.040;2022-12-24T06:56:43;100358.38;;;5.13;100.00
20696;BME280;10507;52.754;13.040;2022-12-24T06:59:12;100352.31;;;5.11;100.00
20696;BME280;10507;52.754;13.040;2022-12-24T07:01:40;100358.53;;;5.09;100.00
20696;BME280;10507;52.754;13.040;2022-12-24T07:04:08;100374.28;;;5.13;100.00
20696;BME280;10507;52.754;13.040;2022-12-24T07:06:45;100377.00;;;5.12;100.00
20696;BME280;10507;52.754;13.040;2022-12-24T07:09:13;100392.78;;;5.13;100.00
20696;BME280;10507;52.754;13.040;2022-12-24T07:11:44;100400.81;;;5.12;100.00
20696;BME280;10507;52.754;13.040;2022-12-24T07:14:13;100389.41;;;5.10;100.00
20696;BME280;10507;52.754;13.040;2022-12-24T07:16:41;100404.34;;;5.11;100.00
20696;BME280;10507;52.754;13.040;2022-12-24T07:19:10;100414.94;;;5.11;100.00
20696;BME280;10507;52.754;13.040;2022-12-24T07:21:38;100422.78;;;5.14;100.00
20696;BME280;10507;52.754;13.040;2022-12-24T07:24:06;100406.13;;;5.10;100.00
20696;BME280;10507;52.754;13.040;2022-12-24T07:26:34;100415.00;;;5.09;100.00
20696;BME280;10507;52.754;13.040;2022-12-24T07:29:02;100419.31;;;5.12;100.00
20696;BME280;10507;52.754;13.040;2022-12-24T07:31:32;100426.34;;;5.13;100.00
20696;BME280;10507;52.754;13.040;2022-12-24T07:34:00;100425.47;;;5.12;100.00
20696;BME280;10507;52.754;13.040;2022-12-24T07:36:28;100422.78;;;5.14;100.00
20696;BME280;10507;52.754;13.040;2022-12-24T07:38:57;100421.13;;;5.11;100.00
20696;BME280;10507;52.754;13.040;2022-12-24T07:41:25;100428.09;;;5.14;100.00
20696;BME280;10507;52.754;13.040;2022-12-24T07:43:53;100436.84;;;5.16;100.00
20696;BME280;10507;52.754;13.040;2022-12-24T07:46:21;100394.81;;;5.07;100.00
20696;BME280;10507;52.754;13.040;2022-12-24T07:48:51;100419.41;;;5.09;100.00
20696;BME280;10507;52.754;13.040;2022-12-24T07:51:19;100410.56;;;5.10;100.00
20696;BME280;10507;52.754;13.040;2022-12-24T07:53:47;100436.91;;;5.13;100.00
20696;BME280;10507;52.754;13.040;2022-12-24T07:56:15;100450.13;;;5.14;100.00
20696;BME280;10507;52.754;13.040;2022-12-24T07:58:43;100445.78;;;5.12;100.00
20696;BME280;10507;52.754;13.040;2022-12-24T08:01:11;100436.06;;;5.12;100.00
20696;BME280;10507;52.754;13.040;2022-12-24T08:03:39;100428.09;;;5.14;100.00
20696;BME280;10507;52.754;13.040;2022-12-24T08:06:09;100434.25;;;5.14;100.00
20696;BME280;10507;52.754;13.040;2022-12-24T08:08:37;100443.84;;;5.17;100.00
20696;BME280;10507;52.754;13.040;2022-12-24T08:11:06;100428.94;;;5.14;100.00
20696;BME280;10507;52.754;13.040;2022-12-24T08:13:34;100438.56;;;5.17;100.00
20696;BME280;10507;52.754;13.040;2022-12-24T08:16:03;100459.56;;;5.23;100.00
20696;BME280;10507;52.754;13.040;2022-12-24T08:18:32;100444.56;;;5.22;100.00
20696;BME280;10507;52.754;13.040;2022-12-24T08:21:00;100447.19;;;5.24;100.00
20696;BME280;10507;52.754;13.040;2022-12-24T08:23:30;100448.84;;;5.26;100.00
20696;BME280;10507;52.754;13.040;2022-12-24T08:25:58;100458.41;;;5.32;100.00
20696;BME280;10507;52.754;13.040;2022-12-24T08:28:28;100442.56;;;5.30;100.00
20696;BME280;10507;52.754;13.040;2022-12-24T08:30:56;100434.81;;;5.24;100.00
20696;BME280;10507;52.754;13.040;2022-12-24T08:33:25;100429.59;;;5.23;100.00
20696;BME280;10507;52.754;13.040;2022-12-24T08:35:54;100469.00;;;5.32;100.00
20696;BME280;10507;52.754;13.040;2022-12-24T08:38:23;100461.91;;;5.32;100.00
20696;BME280;10507;52.754;13.040;2022-12-24T08:40:53;100488.09;;;5.41;100.00
20696;BME280;10507;52.754;13.040;2022-12-24T08:43:23;100468.63;;;5.42;100.00
20696;BME280;10507;52.754;13.040;2022-12-24T08:45:52;100492.28;;;5.49;100.00
20696;BME280;10507;52.754;13.040;2022-12-24T08:48:20;100479.00;;;5.50;100.00
20696;BME280;10507;52.754;13.040;2022-12-24T08:50:48;100453.38;;;5.51;100.00
20696;BME280;10507;52.754;13.040;2022-12-24T08:53:16;100460.34;;;5.53;100.00
20696;BME280;10507;52.754;13.040;2022-12-24T08:55:44;100438.31;;;5.53;100.00
20696;BME280;10507;52.754;13.040;2022-12-24T08:58:23;100408.56;;;5.45;100.00
20696;BME280;10507;52.754;13.040;2022-12-24T09:00:52;100410.47;;;5.41;100.00
20696;BME280;10507;52.754;13.040;2022-12-24T09:03:20;100429.84;;;5.41;100.00
20696;BME280;10507;52.754;13.040;2022-12-24T09:05:53;100439.31;;;5.49;100.00
20696;BME280;10507;52.754;13.040;2022-12-24T09:08:21;100446.44;;;5.47;100.00
20696;BME280;10507;52.754;13.040;2022-12-24T09:10:50;100437.63;;;5.46;100.00
20696;BME280;10507;52.754;13.040;2022-12-24T09:13:18;100438.47;;;5.48;100.00
20696;BME280;10507;52.754;13.040;2022-12-24T09:15:53;100461.25;;;5.54;100.00
20696;BME280;10507;52.754;13.040;2022-12-24T09:18:21;100462.84;;;5.58;100.00
20696;BME280;10507;52.754;13.040;2022-12-24T09:20:49;100444.47;;;5.53;100.00
20696;BME280;10507;52.754;13.040;2022-12-24T09:23:23;100473.41;;;5.59;100.00
20696;BME280;10507;52.754;13.040;2022-12-24T09:25:51;100469.78;;;5.62;100.00
20696;BME280;10507;52.754;13.040;2022-12-24T09:28:19;100475.03;;;5.63;100.00
20696;BME280;10507;52.754;13.040;2022-12-24T09:30:56;100474.84;;;5.70;100.00
20696;BME280;10507;52.754;13.040;2022-12-24T09:33:25;100503.72;;;5.77;100.00
20696;BME280;10507;52.754;13.040;2022-12-24T09:35:53;100482.53;;;5.77;100.00
20696;BME280;10507;52.754;13.040;2022-12-24T09:38:21;100460.47;;;5.77;100.00
20696;BME280;10507;52.754;13.040;2022-12-24T09:40:50;100463.94;;;5.79;100.00
20696;BME280;10507;52.754;13.040;2022-12-24T09:43:20;100478.03;;;5.79;100.00
20696;BME280;10507;52.754;13.040;2022-12-24T09:45:59;100464.84;;;5.78;100.00
20696;BME280;10507;52.754;13.040;2022-12-24T09:48:32;100466.53;;;5.80;100.00
20696;BME280;10507;52.754;13.040;2022-12-24T09:51:04;100477.13;;;5.80;100.00
20696;BME280;10507;52.754;13.040;2022-12-24T09:53:39;100479.69;;;5.83;100.00
20696;BME280;10507;52.754;13.040;2022-12-24T09:56:12;100492.75;;;5.90;100.00
20696;BME280;10507;52.754;13.040;2022-12-24T09:58:44;100471.53;;;5.90;100.00
20696;BME280;10507;52.754;13.040;2022-12-24T10:01:16;100457.56;;;5.84;100.00
20696;BME280;10507;52.754;13.040;2022-12-24T10:03:45;100449.97;;;5.74;100.00
20696;BME280;10507;52.754;13.040;2022-12-24T10:06:15;100455.41;;;5.69;100.00
20696;BME280;10507;52.754;13.040;2022-12-24T10:09:02;100485.28;;;5.74;100.00
20696;BME280;10507;52.754;13.040;2022-12-24T10:11:41;100488.09;;;5.70;100.00
20696;BME280;10507;52.754;13.040;2022-12-24T10:14:23;100540.81;;;5.77;100.00
20696;BME280;10507;52.754;13.040;2022-12-24T10:17:01;100540.63;;;5.83;100.00
20696;BME280;10507;52.754;13.040;2022-12-24T10:19:42;100520.41;;;5.81;100.00
20696;BME280;10507;52.754;13.040;2022-12-24T10:22:19;100509.03;;;5.77;100.00
20696;BME280;10507;52.754;13.040;2022-12-24T10:24:53;100563.34;;;5.91;100.00
20696;BME280;10507;52.754;13.040;2022-12-24T10:27:29;100571.97;;;5.99;100.00
20696;BME280;10507;52.754;13.040;2022-12-24T10:30:02;100551.56;;;6.01;100.00
20696;BME280;10507;52.754;13.040;2022-12-24T10:32:41;100535.59;;;6.02;100.00
20696;BME280;10507;52.754;13.040;2022-12-24T10:35:18;100524.03;;;6.05;100.00
20696;BME280;10507;52.754;13.040;2022-12-24T10:37:48;100554.66;;;6.14;100.00
20696;BME280;10507;52.754;13.040;2022-12-24T10:40:23;100527.47;;;6.09;100.00
20696;BME280;10507;52.754;13.040;2022-12-24T10:42:52;100517.69;;;6.11;100.00
20696;BME280;10507;52.754;13.040;2022-12-24T10:45:23;100514.97;;;6.12;100.00
20696;BME280;10507;52.754;13.040;2022-12-24T10:47:56;100499.16;;;6.09;100.00
20696;BME280;10507;52.754;13.040;2022-12-24T10:50:29;100485.81;;;6.12;100.00
20696;BME280;10507;52.754;13.040;2022-12-24T10:53:04;100452.59;;;6.02;100.00
20696;BME280;10507;52.754;13.040;2022-12-24T10:55:33;100482.72;;;5.99;100.00
20696;BME280;10507;52.754;13.040;2022-12-24T10:58:03;100499.63;;;5.94;100.00
20696;BME280;10507;52.754;13.040;2022-12-24T11:00:33;100551.28;;;6.10;100.00
20696;BME280;10507;52.754;13.040;2022-12-24T11:03:20;100577.47;;;6.19;100.00
20696;BME280;10507;52.754;13.040;2022-12-24T11:06:03;100569.31;;;6.26;100.00
20696;BME280;10507;52.754;13.040;2022-12-24T11:08:31;100548.38;;;6.16;100.00
20696;BME280;10507;52.754;13.040;2022-12-24T11:11:01;100498.19;;;6.12;100.00
20696;BME280;10507;52.754;13.040;2022-12-24T11:13:31;100497.63;;;6.02;100.00
20696;BME280;10507;52.754;13.040;2022-12-24T11:16:06;100505.88;;;5.94;100.00
20696;BME280;10507;52.754;13.040;2022-12-24T11:18:43;100535.75;;;5.98;100.00
20696;BME280;10507;52.754;13.040;2022-12-24T11:21:22;100573.72;;;5.98;100.00
20696;BME280;10507;52.754;13.040;2022-12-24T11:23:54;100568.53;;;5.94;100.00
20696;BME280;10507;52.754;13.040;2022-12-24T11:26:24;100567.94;;;5.86;100.00
20696;BME280;10507;52.754;13.040;2022-12-24T11:29:08;100585.50;;;5.88;100.00
20696;BME280;10507;52.754;13.040;2022-12-24T11:31:41;100587.53;;;5.80;100.00
20696;BME280;10507;52.754;13.040;2022-12-24T11:34:22;100618.44;;;5.79;100.00
20696;BME280;10507;52.754;13.040;2022-12-24T11:36:54;100621.28;;;5.73;100.00
20696;BME280;10507;52.754;13.040;2022-12-24T11:39:24;100652.25;;;5.71;100.00
20696;BME280;10507;52.754;13.040;2022-12-24T11:41:53;100701.41;;;5.81;100.00
20696;BME280;10507;52.754;13.040;2022-12-24T11:44:24;100716.34;;;5.84;100.00
20696;BME280;10507;52.754;13.040;2022-12-24T11:46:54;100756.69;;;5.95;100.00
20696;BME280;10507;52.754;13.040;2022-12-24T11:49:26;100782.00;;;6.06;100.00
20696;BME280;10507;52.754;13.040;2022-12-24T11:52:22;100803.81;;;6.15;100.00
20696;BME280;10507;52.754;13.040;2022-12-24T11:55:11;100799.31;;;6.17;100.00
20696;BME280;10507;52.754;13.040;2022-12-24T11:57:49;100793.09;;;6.18;100.00
20696;BME280;10507;52.754;13.040;2022-12-24T12:00:19;100793.06;;;6.20;100.00
20696;BME280;10507;52.754;13.040;2022-12-24T12:02:48;100809.81;;;6.20;100.00
20696;BME280;10507;52.754;13.040;2022-12-24T12:05:34;100837.81;;;6.31;100.00
20696;BME280;10507;52.754;13.040;2022-12-24T12:08:09;100872.88;;;6.40;100.00
20696;BME280;10507;52.754;13.040;2022-12-24T12:10:41;100820.13;;;6.31;100.00
20696;BME280;10507;52.754;13.040;2022-12-24T12:13:12;100829.94;;;6.28;100.00
20696;BME280;10507;52.754;13.040;2022-12-24T12:15:45;100869.47;;;6.37;100.00
20696;BME280;10507;52.754;13.040;2022-12-24T12:18:17;100853.63;;;6.34;100.00
20696;BME280;10507;52.754;13.040;2022-12-24T12:20:52;100889.66;;;6.41;100.00
20696;BME280;10507;52.754;13.040;2022-12-24T12:23:25;100902.84;;;6.44;100.00
20696;BME280;10507;52.754;13.040;2022-12-24T12:25:58;100908.91;;;6.48;100.00
20696;BME280;10507;52.754;13.040;2022-12-24T12:28:31;100932.59;;;6.55;100.00
20696;BME280;10507;52.754;13.040;2022-12-24T12:31:05;100905.22;;;6.53;100.00
20696;BME280;10507;52.754;13.040;2022-12-24T12:33:45;100885.00;;;6.49;100.00
20696;BME280;10507;52.754;13.040;2022-12-24T12:36:19;100900.00;;;6.50;100.00
20696;BME280;10507;52.754;13.040;2022-12-24T12:38:47;100910.56;;;6.52;100.00
20696;BME280;10507;52.754;13.040;2022-12-24T12:41:29;100914.91;;;6.54;100.00
20696;BME280;10507;52.754;13.040;2022-12-24T12:44:38;100957.09;;;6.63;100.00
20696;BME280;10507;52.754;13.040;2022-12-24T12:47:22;100968.41;;;6.70;100.00
20696;BME280;10507;52.754;13.040;2022-12-24T12:50:05;100952.47;;;6.70;100.00
20696;BME280;10507;52.754;13.040;2022-12-24T12:52:54;100957.72;;;6.73;100.00
20696;BME280;10507;52.754;13.040;2022-12-24T12:55:38;100952.34;;;6.75;100.00
20696;BME280;10507;52.754;13.040;2022-12-24T12:58:13;100974.22;;;6.83;100.00
20696;BME280;10507;52.754;13.040;2022-12-24T13:00:46;100999.53;;;6.95;100.00
20696;BME280;10507;52.754;13.040;2022-12-24T13:09:46;100960.38;;;7.03;100.00
20696;BME280;10507;52.754;13.040;2022-12-24T13:12:32;100938.25;;;7.02;100.00